Flight Track Log - Related Links

Times and Time Zones

All times are in EDT time to prevent confusion due to time zone crossing. See the SWA1775 flight status page for this flight to view local times or setup timezone preferences in your user account.

Time Position Orientation Groundspeed Altitude Reporting Facility
EDT Latitude Longitude Course Direction KTS MPH feet Rate Location/Type
Sun 11:21:25 AM 36.2190 -86.6480 18° North 240 276 4,000  Level FlightAware ADS-B
Sun 11:21:48 AM 36.2410 -86.6570 342° North 264 304 4,600 2,438 Climbing FlightAware ADS-B
Sun 11:21:57 AM 36.2500 -86.6710 309° West 264 304 5,300 3,931 Climbing FlightAware ADS-B
Sun 11:22:17 AM 36.2560 -86.7000 284° West 263 303 6,500 3,360 Climbing FlightAware ADS-B
Sun 11:22:22 AM 36.2560 -86.7060 270° West 262 302 6,700 3,000 Climbing FlightAware ADS-B
Sun 11:22:37 AM 36.2570 -86.7310 273° West 266 306 7,500 2,516 Climbing FlightAware ADS-B
Sun 11:22:53 AM 36.2570 -86.7500 270° West 268 308 8,000 1,935 Climbing FlightAware ADS-B
Sun 11:23:08 AM 36.2580 -86.7750 273° West 280 322 8,500 2,328 Climbing FlightAware ADS-B
Sun 11:24:00 AM 36.2600 -86.8650 272° West 307 353 10,600 1,915 Climbing FlightAware ADS-B
Sun 11:24:42 AM 36.2630 -86.9470 273° West 352 405 11,500 1,875 Climbing FlightAware ADS-B
Sun 11:25:20 AM 36.2660 -87.0240 273° West 356 410 13,100 2,486 Climbing FlightAware ADS-B
Sun 11:25:52 AM 36.2670 -87.0900 271° West 364 419 14,400 2,175 Climbing FlightAware ADS-B
Sun 11:26:40 AM 36.2700 -87.1920 272° West 379 436 16,000 2,071 Climbing FlightAware ADS-B
Sun 11:27:16 AM 36.2730 -87.2690 273° West 384 442 17,300 2,108 Climbing FlightAware ADS-B
Sun 11:27:54 AM 36.2750 -87.3540 272° West 388 447 18,600 1,917 Climbing FlightAware ADS-B
Sun 11:28:28 AM 36.2770 -87.4270 272° West 396 456 19,600 1,658 Climbing FlightAware ADS-B
Sun 11:29:10 AM 36.2790 -87.5280 271° West 408 470 20,700 1,622 Climbing FlightAware ADS-B
Sun 11:29:42 AM 36.2810 -87.6040 272° West 413 475 21,600 1,588 Climbing FlightAware ADS-B
Sun 11:30:18 AM 36.2830 -87.6890 272° West 418 481 22,500 1,500 Climbing FlightAware ADS-B
Sun 11:30:50 AM 36.2850 -87.7650 272° West 423 487 23,300 1,417 Climbing FlightAware ADS-B
Sun 11:31:30 AM 36.2870 -87.8630 271° West 429 494 24,200 1,297 Climbing FlightAware ADS-B
Sun 11:32:04 AM 36.2880 -87.9430 271° West 433 498 24,900 811 Climbing FlightAware ADS-B
Sun 11:32:44 AM 36.2900 -88.0230 272° West 433 498 25,200 234 Climbing FlightAware ADS-B
Sun 11:33:21 AM 36.2910 -88.1020 271° West 433 498 25,200  Level FlightAware ADS-B
Sun 11:33:57 AM 36.2920 -88.1780 271° West 433 498 25,200  Level FlightAware ADS-B
Sun 11:34:33 AM 36.2930 -88.2540 271° West 433 498 25,200  Level FlightAware ADS-B
Sun 11:35:10 AM 36.2940 -88.3320 271° West 433 498 25,200 2,824 Level FlightAware ADS-B
Sun 11:35:58 AM 36.2990 -88.5270 272° West 447 514 29,200 2,857 Climbing FlightAware ADS-B
Sun 11:36:34 AM 36.3000 -88.6060 271° West 447 514 29,200  Level FlightAware ADS-B
Sun 11:37:10 AM 36.3010 -88.6840 271° West 447 514 29,200  Level FlightAware ADS-B
Sun 11:37:46 AM 36.3020 -88.7630 271° West 447 514 29,200  Level FlightAware ADS-B
Sun 11:38:35 AM 36.3040 -88.8700 271° West 447 514 29,200  Level FlightAware ADS-B
Sun 11:39:11 AM 36.3050 -88.9480 271° West 447 514 29,200 2,632 Level FlightAware ADS-B
Sun 11:41:10 AM 36.3090 -89.2910 271° West 411 473 36,000 2,684 Climbing FlightAware ADS-B
Sun 11:41:43 AM 36.3100 -89.3780 271° West 411 473 36,000  Level FlightAware ADS-B
Sun 11:42:21 AM 36.3110 -89.4640 271° West 410 472 36,000  Level FlightAware ADS-B
Sun 11:42:36 AM 36.3110 -89.4970 270° West 410 472 36,000  Level FlightAware ADS-B
Sun 11:43:42 AM 36.3120 -89.6530 271° West 411 473 36,000  Level FlightAware ADS-B
Sun 11:44:18 AM 36.3130 -89.7400 271° West 412 474 36,000  Level FlightAware ADS-B
Sun 11:44:50 AM 36.3130 -89.8160 270° West 415 478 36,000  Level FlightAware ADS-B
Sun 11:46:01 AM 36.3130 -89.9710 270° West 416 479 36,000  Level FlightAware ADS-B
Sun 11:46:36 AM 36.3140 -90.0700 271° West 418 481 36,000  Level FlightAware ADS-B
Sun 11:47:13 AM 36.3140 -90.1470 270° West 418 481 36,000  Level FlightAware ADS-B
Sun 11:47:39 AM 36.3140 -90.2000 270° West 418 481 36,000  Level FlightAware ADS-B
Sun 11:48:14 AM 36.3150 -90.3020 271° West 419 482 36,000  Level FlightAware ADS-B
Sun 11:48:47 AM 36.3150 -90.3720 270° West 419 482 36,000  Level FlightAware ADS-B
Sun 11:49:26 AM 36.3150 -90.4520 270° West 419 482 36,000  Level FlightAware ADS-B
Sun 11:49:56 AM 36.3150 -90.5470 270° West 419 482 36,000  Level FlightAware ADS-B
Sun 11:50:41 AM 36.3150 -90.6560 270° West 420 483 36,000  Level FlightAware ADS-B
Sun 11:51:19 AM 36.3140 -90.7440 269° West 420 483 36,000  Level FlightAware ADS-B
Sun 11:51:51 AM 36.3140 -90.8250 270° West 420 483 36,000  Level FlightAware ADS-B
Sun 11:52:23 AM 36.3140 -90.9000 270° West 420 483 36,000  Level FlightAware ADS-B
Sun 11:53:03 AM 36.3130 -90.9970 269° West 421 484 36,000  Level FlightAware ADS-B
Sun 11:53:39 AM 36.3130 -91.0830 270° West 421 484 36,000  Level FlightAware ADS-B
Sun 11:54:11 AM 36.3130 -91.1620 270° West 421 484 36,000  Level FlightAware ADS-B
Sun 11:54:46 AM 36.3120 -91.2440 269° West 422 486 36,000  Level FlightAware ADS-B
Sun 11:55:19 AM 36.3120 -91.3250 270° West 423 487 36,000  Level FlightAware ADS-B
Sun 11:55:57 AM 36.3110 -91.4170 269° West 423 487 36,000  Level FlightAware ADS-B
Sun 11:56:36 AM 36.3100 -91.5000 269° West 423 487 36,000  Level FlightAware ADS-B
Sun 11:57:15 AM 36.3090 -91.6060 269° West 424 488 36,000  Level FlightAware ADS-B
Sun 11:57:53 AM 36.3080 -91.6980 269° West 424 488 36,000  Level FlightAware ADS-B
Sun 11:58:30 AM 36.3070 -91.7860 269° West 423 487 36,000  Level FlightAware ADS-B
Sun 11:59:07 AM 36.3060 -91.8770 269° West 424 488 36,000  Level FlightAware ADS-B
Sun 11:59:39 AM 36.3050 -91.9540 269° West 424 488 36,000  Level FlightAware ADS-B
Sun 11:59:59 AM 36.3050 -92.0030 270° West 425 489 36,000  Level FlightAware ADS-B
Sun 12:01:01 PM 36.3030 -92.1540 269° West 426 490 36,000  Level FlightAware ADS-B
Sun 12:01:37 PM 36.3010 -92.2420 268° West 427 491 36,000  Level FlightAware ADS-B
Sun 12:02:09 PM 36.3000 -92.3190 269° West 428 493 36,000  Level FlightAware ADS-B
Sun 12:02:36 PM 36.2990 -92.3840 269° West 430 495 36,000  Level FlightAware ADS-B
Sun 12:02:56 PM 36.2980 -92.4340 269° West 431 496 36,000  Level FlightAware ADS-B
Sun 12:03:53 PM 36.2960 -92.5490 269° West 434 499 36,000  Level FlightAware ADS-B
Sun 12:04:31 PM 36.2940 -92.6670 269° West 436 502 36,000  Level FlightAware ADS-B
Sun 12:05:06 PM 36.2930 -92.7580 269° West 438 504 36,000  Level FlightAware ADS-B
Sun 12:05:38 PM 36.2910 -92.8380 268° West 438 504 36,000  Level FlightAware ADS-B
Sun 12:06:24 PM 36.2890 -92.9540 269° West 440 506 36,000  Level FlightAware ADS-B
Sun 12:06:56 PM 36.2870 -93.0330 268° West 438 504 36,000  Level FlightAware ADS-B
Sun 12:07:34 PM 36.2850 -93.1280 269° West 433 498 36,000  Level FlightAware ADS-B
Sun 12:08:06 PM 36.2830 -93.2080 268° West 434 499 36,000  Level FlightAware ADS-B
Sun 12:08:40 PM 36.2810 -93.2900 268° West 433 498 36,000  Level FlightAware ADS-B
Sun 12:09:18 PM 36.2790 -93.3850 269° West 434 499 36,000  Level FlightAware ADS-B
Sun 12:09:50 PM 36.2770 -93.4660 268° West 434 499 36,000  Level FlightAware ADS-B
Sun 12:10:26 PM 36.2750 -93.5540 268° West 433 498 36,000  Level FlightAware ADS-B
Sun 12:10:56 PM 36.2730 -93.6290 268° West 432 497 36,000  Level FlightAware ADS-B
Sun 12:11:47 PM 36.2700 -93.7420 268° West 434 499 36,000  Level FlightAware ADS-B
Sun 12:12:28 PM 36.2670 -93.8550 268° West 434 499 36,000  Level FlightAware ADS-B
Sun 12:13:02 PM 36.2640 -93.9390 267° West 436 502 36,000  Level FlightAware ADS-B
Sun 12:13:34 PM 36.2620 -94.0200 268° West 438 504 36,000  Level FlightAware ADS-B
Sun 12:14:09 PM 36.2590 -94.1070 268° West 440 506 36,000  Level FlightAware ADS-B
Sun 12:14:46 PM 36.2560 -94.2020 268° West 442 509 36,000  Level FlightAware ADS-B
Sun 12:15:20 PM 36.2540 -94.2870 268° West 445 512 36,000  Level FlightAware ADS-B
Sun 12:15:54 PM 36.2510 -94.3750 268° West 446 513 36,000  Level FlightAware ADS-B
Sun 12:16:30 PM 36.2480 -94.4650 268° West 448 516 36,000  Level FlightAware ADS-B
Sun 12:17:06 PM 36.2450 -94.5580 268° West 451 519 36,000  Level FlightAware ADS-B
Sun 12:17:40 PM 36.2420 -94.6460 268° West 454 522 36,000  Level FlightAware ADS-B
Sun 12:18:16 PM 36.2380 -94.7400 267° West 455 524 36,000  Level FlightAware ADS-B
Sun 12:18:52 PM 36.2350 -94.8340 268° West 457 526 36,000  Level FlightAware ADS-B
Sun 12:19:25 PM 36.2320 -94.9180 267° West 456 525 36,000  Level FlightAware ADS-B
Sun 12:19:58 PM 36.2280 -95.0050 267° West 454 522 36,000  Level FlightAware ADS-B
Sun 12:21:07 PM 36.2230 -95.1560 268° West 456 525 36,000  Level FlightAware ADS-B
Sun 12:21:44 PM 36.2180 -95.2750 267° West 457 526 36,000  Level FlightAware ADS-B
Sun 12:22:16 PM 36.2140 -95.3630 267° West 458 527 36,000  Level FlightAware ADS-B
Sun 12:22:49 PM 36.2110 -95.4510 268° West 459 528 36,000  Level FlightAware ADS-B
Sun 12:23:17 PM 36.2080 -95.5240 267° West 460 529 36,000  Level FlightAware ADS-B
Sun 12:24:11 PM 36.2020 -95.6660 267° West 460 529 36,000  Level FlightAware ADS-B
Sun 12:24:50 PM 36.1970 -95.7700 267° West 459 528 36,000  Level FlightAware ADS-B
Sun 12:25:25 PM 36.1850 -95.8580 260° West 460 529 36,000  Level FlightAware ADS-B
Sun 12:26:03 PM 36.1680 -95.9580 258° West 459 528 36,000  Level FlightAware ADS-B
Sun 12:26:44 PM 36.1510 -96.0600 258° West 457 526 36,000  Level FlightAware ADS-B
Sun 12:27:11 PM 36.1390 -96.1310 258° West 456 525 36,000  Level FlightAware ADS-B
Sun 12:27:52 PM 36.1210 -96.2340 258° West 454 522 36,000  Level FlightAware ADS-B
Sun 12:28:27 PM 36.1050 -96.3250 258° West 454 522 36,000  Level FlightAware ADS-B
Sun 12:29:01 PM 36.0910 -96.4110 259° West 453 521 36,000  Level FlightAware ADS-B
Sun 12:29:38 PM 36.0750 -96.5040 258° West 452 520 36,000  Level FlightAware ADS-B
Sun 12:30:11 PM 36.0600 -96.5870 257° West 452 520 36,000  Level FlightAware ADS-B
Sun 12:30:48 PM 36.0440 -96.6800 258° West 453 521 36,000  Level FlightAware ADS-B
Sun 12:31:21 PM 36.0290 -96.7650 258° West 452 520 36,000  Level FlightAware ADS-B
Sun 12:31:56 PM 36.0140 -96.8520 258° West 452 520 36,000  Level FlightAware ADS-B
Sun 12:32:35 PM 35.9970 -96.9480 258° West 451 519 36,000  Level FlightAware ADS-B
Sun 12:33:05 PM 35.9830 -97.0250 257° West 450 518 36,000  Level FlightAware ADS-B
Sun 12:33:42 PM 35.9670 -97.1180 258° West 449 517 36,000  Level FlightAware ADS-B
Sun 12:34:18 PM 35.9520 -97.2030 258° West 449 517 36,000  Level FlightAware ADS-B
Sun 12:34:49 PM 35.9370 -97.2850 257° West 449 517 36,000  Level FlightAware ADS-B
Sun 12:35:28 PM 35.9190 -97.3840 257° West 451 519 36,000  Level FlightAware ADS-B
Sun 12:36:01 PM 35.9040 -97.4660 257° West 452 520 36,000  Level FlightAware ADS-B
Sun 12:36:35 PM 35.8890 -97.5520 258° West 454 522 36,000  Level FlightAware ADS-B
Sun 12:37:12 PM 35.8710 -97.6460 257° West 455 524 36,000  Level FlightAware ADS-B
Sun 12:37:41 PM 35.8580 -97.7170 257° West 455 524 36,000  Level FlightAware ADS-B
Sun 12:38:19 PM 35.8500 -97.8160 264° West 454 522 36,000  Level FlightAware ADS-B
Sun 12:38:56 PM 35.8510 -97.9110 271° West 454 522 36,000  Level FlightAware ADS-B
Sun 12:39:31 PM 35.8510 -98.0010 270° West 454 522 36,000  Level FlightAware ADS-B
Sun 12:39:54 PM 35.8510 -98.0620 270° West 454 522 36,000  Level FlightAware ADS-B
Sun 12:40:43 PM 35.8510 -98.1580 270° West 454 522 36,000  Level FlightAware ADS-B
Sun 12:41:20 PM 35.8510 -98.2810 270° West 452 520 36,000  Level FlightAware ADS-B
Sun 12:42:06 PM 35.8510 -98.4020 270° West 452 520 36,000  Level FlightAware ADS-B
Sun 12:42:20 PM 35.8510 -98.4340 270° West 452 520 36,000  Level FlightAware ADS-B
Sun 12:43:34 PM 35.8510 -98.6260 270° West 453 521 36,000  Level FlightAware ADS-B
Sun 12:44:04 PM 35.8510 -98.7030 270° West 454 522 36,000  Level FlightAware ADS-B
Sun 12:44:40 PM 35.8500 -98.7980 269° West 455 524 36,000  Level FlightAware ADS-B
Sun 12:45:17 PM 35.8500 -98.8930 270° West 456 525 36,000  Level FlightAware ADS-B
Sun 12:45:52 PM 35.8490 -98.9830 269° West 457 526 36,000  Level FlightAware ADS-B
Sun 12:46:33 PM 35.8490 -99.0900 270° West 458 527 36,000  Level FlightAware ADS-B
Sun 12:47:10 PM 35.8480 -99.1860 269° West 460 529 36,000  Level FlightAware ADS-B
Sun 12:47:42 PM 35.8480 -99.2720 270° West 461 531 36,000  Level FlightAware ADS-B
Sun 12:48:18 PM 35.8470 -99.3630 269° West 462 532 36,000  Level FlightAware ADS-B
Sun 12:48:52 PM 35.8460 -99.4550 269° West 462 532 36,000  Level FlightAware ADS-B
Sun 12:49:28 PM 35.8450 -99.5500 269° West 461 531 36,000  Level FlightAware ADS-B
Sun 12:50:03 PM 35.8440 -99.6410 269° West 460 529 36,000  Level FlightAware ADS-B
Sun 12:50:41 PM 35.8430 -99.7390 269° West 460 529 36,000  Level FlightAware ADS-B
Sun 12:51:13 PM 35.8420 -99.8220 269° West 460 529 36,000  Level FlightAware ADS-B
Sun 12:51:50 PM 35.8410 -99.9200 269° West 460 529 36,000  Level FlightAware ADS-B
Sun 12:52:22 PM 35.8400 -100.0040 269° West 460 529 36,000  Level FlightAware ADS-B
Sun 12:52:53 PM 35.8380 -100.0830 268° West 460 529 36,000  Level FlightAware ADS-B
Sun 12:53:33 PM 35.8370 -100.1890 269° West 459 528 36,000  Level FlightAware ADS-B
Sun 12:54:06 PM 35.8350 -100.2760 268° West 459 528 36,000  Level FlightAware ADS-B
Sun 12:54:43 PM 35.8340 -100.3720 269° West 458 527 36,000  Level FlightAware ADS-B
Sun 12:55:17 PM 35.8320 -100.4600 268° West 457 526 36,000  Level FlightAware ADS-B
Sun 12:55:50 PM 35.8300 -100.5440 268° West 456 525 36,000  Level FlightAware ADS-B
Sun 12:56:40 PM 35.8280 -100.6610 269° West 456 525 36,000  Level FlightAware ADS-B
Sun 12:57:17 PM 35.8260 -100.7700 269° West 454 522 36,000  Level FlightAware ADS-B
Sun 12:57:54 PM 35.8240 -100.8510 268° West 454 522 36,000  Level FlightAware ADS-B
Sun 12:58:30 PM 35.8220 -100.9310 268° West 454 522 36,000  Level FlightAware ADS-B
Sun 12:59:06 PM 35.8200 -101.0360 269° West 452 520 36,000  Level FlightAware ADS-B
Sun 12:59:42 PM 35.8180 -101.1150 268° West 452 520 36,000  Level FlightAware ADS-B
Sun 01:00:31 PM 35.8150 -101.2220 268° West 452 520 36,000  Level FlightAware ADS-B
Sun 01:01:20 PM 35.8120 -101.3290 268° West 452 520 36,000  Level FlightAware ADS-B
Sun 01:01:58 PM 35.8090 -101.4130 268° West 452 520 36,000  Level FlightAware ADS-B
Sun 01:02:35 PM 35.8070 -101.4940 268° West 452 520 36,000  Level FlightAware ADS-B
Sun 01:02:59 PM 35.8050 -101.5460 267° West 452 520 36,000  Level FlightAware ADS-B
Sun 01:04:10 PM 35.8010 -101.7020 268° West 452 520 36,000  Level FlightAware ADS-B
Sun 01:04:46 PM 35.7990 -101.7810 268° West 452 520 36,000  Level FlightAware ADS-B
Sun 01:05:22 PM 35.7960 -101.8600 267° West 452 520 36,000  Level FlightAware ADS-B
Sun 01:05:58 PM 35.7940 -101.9380 268° West 452 520 36,000  Level FlightAware ADS-B
Sun 01:06:34 PM 35.7920 -102.0170 268° West 452 520 36,000  Level FlightAware ADS-B
Sun 01:07:10 PM 35.7900 -102.0960 268° West 452 520 36,000  Level FlightAware ADS-B
Sun 01:07:46 PM 35.7880 -102.1750 268° West 452 520 36,000  Level FlightAware ADS-B
Sun 01:08:22 PM 35.7850 -102.2540 267° West 452 520 36,000  Level FlightAware ADS-B
Sun 01:09:08 PM 35.7753 -102.5764 267° West 448 516 36,000  Level Albuquerque Center
Sun 01:10:10 PM 35.7703 -102.7281 268° West 446 513 36,000  Level Albuquerque Center
Sun 01:11:12 PM 35.7642 -102.8797 267° West 446 513 36,000  Level Albuquerque Center
Sun 01:12:14 PM 35.7594 -103.0328 268° West 443 510 36,000  Level Albuquerque Center
Sun 01:13:16 PM 35.7514 -103.2103 267° West 442 509 36,000  Level Albuquerque Center
Sun 01:14:18 PM 35.7450 -103.3606 267° West 438 504 36,000  Level Albuquerque Center
Sun 01:15:20 PM 35.7389 -103.5119 267° West 440 506 36,000  Level Albuquerque Center
Sun 01:16:22 PM 35.7319 -103.6633 267° West 441 507 36,000  Level Albuquerque Center
Sun 01:17:24 PM 35.7253 -103.8158 267° West 443 510 36,000  Level Albuquerque Center
Sun 01:18:26 PM 35.7183 -103.9683 267° West 445 512 36,000  Level Albuquerque Center
Sun 01:19:28 PM 35.7108 -104.1467 267° West 447 514 36,000  Level Albuquerque Center
Sun 01:20:30 PM 35.7028 -104.2997 266° West 448 516 36,000  Level Albuquerque Center
Sun 01:21:32 PM 35.6947 -104.4531 266° West 449 517 36,000  Level Albuquerque Center
Sun 01:22:34 PM 35.6861 -104.6072 266° West 451 519 36,000  Level Albuquerque Center
Sun 01:23:36 PM 35.6789 -104.7603 267° West 448 516 36,000  Level Albuquerque Center
Sun 01:29:13 PM 35.5400 -105.5920 267° West 427 491 36,000  Level FlightAware ADS-B
Sun 01:29:41 PM 35.5290 -105.6580 258° West 426 490 36,000  Level FlightAware ADS-B
Sun 01:30:21 PM 35.5150 -105.7380 258° West 426 490 36,000  Level FlightAware ADS-B
Sun 01:30:57 PM 35.5020 -105.8110 258° West 426 490 36,000  Level FlightAware ADS-B
Sun 01:31:33 PM 35.4860 -105.9270 260° West 429 494 36,000  Level FlightAware ADS-B
Sun 01:32:07 PM 35.4730 -106.0070 259° West 431 496 36,000  Level FlightAware ADS-B
Sun 01:32:45 PM 35.4590 -106.0990 259° West 430 495 36,000  Level FlightAware ADS-B
Sun 01:33:17 PM 35.4480 -106.1760 260° West 428 493 36,000  Level FlightAware ADS-B
Sun 01:33:57 PM 35.4340 -106.2700 260° West 431 496 36,000  Level FlightAware ADS-B
Sun 01:34:29 PM 35.4220 -106.3490 259° West 432 497 36,000  Level FlightAware ADS-B
Sun 01:35:05 PM 35.4090 -106.4340 259° West 432 497 36,000  Level FlightAware ADS-B
Sun 01:35:41 PM 35.3950 -106.5210 259° West 432 497 36,000  Level FlightAware ADS-B
Sun 01:36:17 PM 35.3820 -106.6080 260° West 432 497 36,000  Level FlightAware ADS-B
Sun 01:36:49 PM 35.3710 -106.6850 260° West 433 498 36,000  Level FlightAware ADS-B
Sun 01:37:23 PM 35.3600 -106.7670 261° West 434 499 36,000  Level FlightAware ADS-B
Sun 01:37:59 PM 35.3480 -106.8530 260° West 435 501 36,000  Level FlightAware ADS-B
Sun 01:38:33 PM 35.3370 -106.9360 261° West 436 502 36,000  Level FlightAware ADS-B
Sun 01:39:09 PM 35.3250 -107.0250 261° West 437 503 36,000  Level FlightAware ADS-B
Sun 01:39:45 PM 35.3160 -107.1140 263° West 439 505 36,000  Level FlightAware ADS-B
Sun 01:39:57 PM 35.3130 -107.1440 263° West 439 505 36,000  Level FlightAware ADS-B
Sun 01:41:06 PM 35.2900 -107.3080 260° West 436 502 36,000  Level FlightAware ADS-B
Sun 01:41:39 PM 35.2770 -107.3890 259° West 435 501 36,000  Level FlightAware ADS-B
Sun 01:42:06 PM 35.2670 -107.4510 259° West 436 502 36,000  Level FlightAware ADS-B
Sun 01:42:33 PM 35.2570 -107.5060 257° West 436 502 36,000  Level FlightAware ADS-B
Sun 01:43:45 PM 35.2310 -107.6540 258° West 436 502 36,000  Level FlightAware ADS-B
Sun 01:44:33 PM 35.2140 -107.7530 258° West 436 502 36,000  Level FlightAware ADS-B
Sun 01:45:09 PM 35.2010 -107.8260 258° West 436 502 36,000  Level FlightAware ADS-B
Sun 01:45:58 PM 35.1840 -107.9270 258° West 436 502 36,000  Level FlightAware ADS-B
Sun 01:46:34 PM 35.1710 -108.0010 258° West 436 502 36,000  Level FlightAware ADS-B
Sun 01:47:11 PM 35.1580 -108.0770 258° West 436 502 36,000  Level FlightAware ADS-B
Sun 01:48:00 PM 35.1400 -108.1770 258° West 436 502 36,000  Level FlightAware ADS-B
Sun 01:48:37 PM 35.1270 -108.2530 258° West 436 502 36,000  Level FlightAware ADS-B
Sun 01:49:14 PM 35.1140 -108.3290 258° West 436 502 36,000  Level FlightAware ADS-B
Sun 01:49:51 PM 35.1010 -108.4050 258° West 436 502 36,000  Level FlightAware ADS-B
Sun 01:50:39 PM 35.0840 -108.5030 258° West 436 502 36,000  Level FlightAware ADS-B
Sun 01:51:15 PM 35.0710 -108.5770 258° West 436 502 36,000  Level FlightAware ADS-B
Sun 01:51:47 PM 35.1230 -108.8990 281° West 451 519 36,000  Level FlightAware ADS-B
Sun 01:52:37 PM 35.1080 -109.0230 262° West 450 518 36,000  Level FlightAware ADS-B
Sun 01:53:13 PM 35.0970 -109.1160 262° West 450 518 36,000  Level FlightAware ADS-B
Sun 01:53:47 PM 35.0870 -109.2010 262° West 449 517 36,000  Level FlightAware ADS-B
Sun 01:54:25 PM 35.0760 -109.2940 262° West 448 516 36,000  Level FlightAware ADS-B
Sun 01:54:55 PM 35.0660 -109.3720 261° West 446 513 36,000  Level FlightAware ADS-B
Sun 01:55:34 PM 35.0550 -109.4650 262° West 446 513 36,000  Level FlightAware ADS-B
Sun 01:56:10 PM 35.0440 -109.5550 262° West 445 512 36,000  Level FlightAware ADS-B
Sun 01:56:44 PM 35.0340 -109.6370 262° West 444 511 36,000  Level FlightAware ADS-B
Sun 01:57:24 PM 35.0220 -109.7340 261° West 445 512 36,000  Level FlightAware ADS-B
Sun 01:58:01 PM 35.0100 -109.8320 262° West 445 512 36,000  Level FlightAware ADS-B
Sun 01:58:37 PM 34.9980 -109.9220 261° West 445 512 36,000  Level FlightAware ADS-B
Sun 01:59:13 PM 34.9870 -110.0110 261° West 445 512 36,000  Level FlightAware ADS-B
Sun 01:59:46 PM 34.9760 -110.0930 261° West 445 512 36,000  Level FlightAware ADS-B
Sun 02:00:00 PM 34.9720 -110.1270 262° West 445 512 36,000  Level FlightAware ADS-B
Sun 02:01:02 PM 34.9560 -110.2500 261° West 445 512 36,000  Level FlightAware ADS-B
Sun 02:01:40 PM 34.9400 -110.3740 261° West 445 512 36,000  Level FlightAware ADS-B
Sun 02:02:18 PM 34.9280 -110.4690 261° West 444 511 36,000  Level FlightAware ADS-B
Sun 02:02:50 PM 34.9180 -110.5470 261° West 444 511 36,000  Level FlightAware ADS-B
Sun 02:03:20 PM 34.9080 -110.6220 261° West 444 511 36,000  Level FlightAware ADS-B
Sun 02:04:30 PM 34.8850 -110.7940 261° West 443 510 36,000  Level FlightAware ADS-B
Sun 02:05:10 PM 34.8720 -110.8890 261° West 443 510 36,000  Level FlightAware ADS-B
Sun 02:05:46 PM 34.8600 -110.9790 261° West 442 509 36,000  Level FlightAware ADS-B
Sun 02:06:18 PM 34.8490 -111.0590 261° West 442 509 36,000  Level FlightAware ADS-B
Sun 02:06:54 PM 34.8370 -111.1470 261° West 443 510 36,000  Level FlightAware ADS-B
Sun 02:07:30 PM 34.8250 -111.2350 261° West 441 507 36,000  Level FlightAware ADS-B
Sun 02:08:06 PM 34.8130 -111.3220 260° West 442 509 36,000  Level FlightAware ADS-B
Sun 02:08:40 PM 34.8020 -111.4050 261° West 441 507 36,000  Level FlightAware ADS-B
Sun 02:09:13 PM 34.7900 -111.4850 260° West 441 507 36,000  Level FlightAware ADS-B
Sun 02:09:50 PM 34.7780 -111.5750 261° West 441 507 36,000  Level FlightAware ADS-B
Sun 02:10:24 PM 34.7660 -111.6580 260° West 441 507 36,000  Level FlightAware ADS-B
Sun 02:10:52 PM 34.7560 -111.7290 260° West 440 506 36,000  Level FlightAware ADS-B
Sun 02:11:35 PM 34.7420 -111.8300 260° West 438 504 36,000  Level FlightAware ADS-B
Sun 02:12:08 PM 34.7300 -111.9130 260° West 438 504 36,000  Level FlightAware ADS-B
Sun 02:12:46 PM 34.7170 -112.0040 260° West 436 502 36,000  Level FlightAware ADS-B
Sun 02:13:22 PM 34.7040 -112.0900 260° West 434 499 36,000  Level FlightAware ADS-B
Sun 02:13:54 PM 34.6930 -112.1680 260° West 433 498 36,000  Level FlightAware ADS-B
Sun 02:14:32 PM 34.6800 -112.2590 260° West 433 498 36,000  Level FlightAware ADS-B
Sun 02:15:08 PM 34.6670 -112.3460 260° West 433 498 36,000  Level FlightAware ADS-B
Sun 02:15:40 PM 34.6560 -112.4210 260° West 433 498 36,000  Level FlightAware ADS-B
Sun 02:16:10 PM 34.6450 -112.4940 260° West 433 498 36,000  Level FlightAware ADS-B
Sun 02:16:58 PM 34.6280 -112.6080 260° West 433 498 36,000  Level FlightAware ADS-B
Sun 02:17:34 PM 34.6150 -112.6930 259° West 432 497 36,000  Level FlightAware ADS-B
Sun 02:18:06 PM 34.6040 -112.7700 260° West 431 496 36,000  Level FlightAware ADS-B
Sun 02:18:39 PM 34.5920 -112.8460 259° West 428 493 36,000  Level FlightAware ADS-B
Sun 02:19:19 PM 34.5780 -112.9430 260° West 428 493 36,000  Level FlightAware ADS-B
Sun 02:19:53 PM 34.5660 -113.0210 259° West 428 493 36,000  Level FlightAware ADS-B
Sun 02:20:32 PM 34.5560 -113.0820 259° West 428 493 36,000  Level FlightAware ADS-B
Sun 02:21:11 PM 34.5370 -113.2060 259° West 429 494 36,000  Level FlightAware ADS-B
Sun 02:21:49 PM 34.5230 -113.2970 259° West 431 496 36,000  Level FlightAware ADS-B
Sun 02:22:21 PM 34.5120 -113.3710 260° West 431 496 36,000  Level FlightAware ADS-B
Sun 02:22:59 PM 34.4970 -113.4620 259° West 431 496 36,000  Level FlightAware ADS-B
Sun 02:23:03 PM 34.4960 -113.4720 263° West 431 496 36,000  Level FlightAware ADS-B
Sun 02:24:08 PM 34.4720 -113.6220 259° West 429 494 36,000  Level FlightAware ADS-B
Sun 02:24:47 PM 34.4580 -113.7130 259° West 428 493 36,000  Level FlightAware ADS-B
Sun 02:25:18 PM 34.4460 -113.7870 259° West 428 493 36,000  Level FlightAware ADS-B
Sun 02:25:55 PM 34.4320 -113.8770 259° West 428 493 36,000  Level FlightAware ADS-B
Sun 02:26:27 PM 34.4200 -113.9520 259° West 428 493 36,000  Level FlightAware ADS-B
Sun 02:27:05 PM 34.4050 -114.0410 258° West 428 493 36,000  Level FlightAware ADS-B
Sun 02:27:41 PM 34.3910 -114.1270 259° West 430 495 36,000  Level FlightAware ADS-B
Sun 02:28:17 PM 34.3780 -114.2100 259° West 429 494 36,000  Level FlightAware ADS-B
Sun 02:28:51 PM 34.3640 -114.2910 258° West 429 494 36,000  Level FlightAware ADS-B
Sun 02:29:23 PM 34.3530 -114.3630 260° West 429 494 36,000  Level FlightAware ADS-B
Sun 02:30:06 PM 34.3380 -114.4500 258° West 428 493 36,000  Level FlightAware ADS-B
Sun 02:30:38 PM 34.3260 -114.5230 259° West 427 491 36,000  Level FlightAware ADS-B
Sun 02:31:27 PM 34.3070 -114.6370 259° West 426 490 36,000  Level FlightAware ADS-B
Sun 02:32:12 PM 34.2910 -114.7310 258° West 424 488 36,000  Level FlightAware ADS-B
Sun 02:32:48 PM 34.2780 -114.8030 258° West 424 488 36,000  Level FlightAware ADS-B
Sun 02:33:26 PM 34.2650 -114.8780 258° West 424 488 36,000  Level FlightAware ADS-B
Sun 02:34:03 PM 34.2520 -114.9510 258° West 424 488 36,000  Level FlightAware ADS-B
Sun 02:34:38 PM 34.2290 -115.1000 259° West 425 489 36,000  Level FlightAware ADS-B
Sun 02:35:18 PM 34.2130 -115.1920 258° West 427 491 36,000  Level FlightAware ADS-B
Sun 02:35:46 PM 34.2020 -115.2570 258° West 429 494 36,000  Level FlightAware ADS-B
Sun 02:36:18 PM 34.1890 -115.3340 258° West 431 496 36,000  Level FlightAware ADS-B
Sun 02:36:54 PM 34.1740 -115.4150 257° West 433 498 36,000  Level FlightAware ADS-B
Sun 02:37:30 PM 34.1600 -115.4980 259° West 434 499 36,000 -333 Level FlightAware ADS-B
Sun 02:38:06 PM 34.1450 -115.5850 258° West 433 498 35,600 -806 Descending FlightAware ADS-B
Sun 02:38:37 PM 34.1320 -115.6570 258° West 434 499 35,100 -971 Descending FlightAware ADS-B
Sun 02:39:14 PM 34.1160 -115.7490 258° West 437 503 34,500 -957 Descending FlightAware ADS-B
Sun 02:39:46 PM 34.1040 -115.8250 259° West 440 506 34,000 -878 Descending FlightAware ADS-B
Sun 02:39:55 PM 34.1010 -115.8440 259° West 439 505 33,900 -930 Descending FlightAware ADS-B
Sun 02:40:57 PM 34.0790 -115.9950 260° West 437 503 32,900 -1,011 Descending FlightAware ADS-B
Sun 02:41:30 PM 34.0670 -116.0750 260° West 434 499 32,300 -1,325 Descending FlightAware ADS-B
Sun 02:42:14 PM 34.0510 -116.1820 260° West 430 495 31,200 -1,500 Descending FlightAware ADS-B
Sun 02:42:18 PM 34.0500 -116.1890 260° West 428 493 31,100 -2,118 Descending FlightAware ADS-B
Sun 02:43:22 PM 34.0280 -116.3360 260° West 416 479 28,800 -2,069 Descending FlightAware ADS-B
Sun 02:44:14 PM 34.0100 -116.4550 260° West 407 468 27,100 -2,143 Descending FlightAware ADS-B
Sun 02:44:46 PM 34.0020 -116.5280 262° West 423 487 25,800 -2,294 Descending FlightAware ADS-B
Sun 02:45:22 PM 33.9950 -116.6150 264° West 432 497 24,500 -2,167 Descending FlightAware ADS-B
Sun 02:45:58 PM 33.9880 -116.7000 264° West 427 491 23,200 -2,250 Descending FlightAware ADS-B
Sun 02:46:34 PM 33.9810 -116.7850 264° West 420 483 21,800 -2,348 Descending FlightAware ADS-B
Sun 02:47:07 PM 33.9750 -116.8590 264° West 411 473 20,500 -2,294 Descending FlightAware ADS-B
Sun 02:47:42 PM 33.9690 -116.9390 265° West 402 463 19,200 -2,239 Descending FlightAware ADS-B
Sun 02:48:14 PM 33.9630 -117.0090 264° West 394 453 18,000 -1,853 Descending FlightAware ADS-B
Sun 02:48:50 PM 33.9560 -117.0870 264° West 378 435 17,100 -1,000 Descending FlightAware ADS-B
Sun 02:49:32 PM 33.9570 -117.1690 271° West 364 419 16,700 -1,923 Descending FlightAware ADS-B
Sun 02:50:08 PM 33.9700 -117.2480 281° West 381 438 14,600 -2,545 Descending FlightAware ADS-B
Sun 02:50:38 PM 33.9780 -117.3100 279° West 372 428 13,900 -1,714 Descending FlightAware ADS-B
Sun 02:51:18 PM 33.9870 -117.3910 278° West 369 425 12,600 -1,538 Descending FlightAware ADS-B
Sun 02:51:56 PM 33.9960 -117.4660 278° West 348 400 11,900 -1,043 Descending FlightAware ADS-B
Sun 02:52:27 PM 34.0020 -117.5240 277° West 337 388 11,400 -1,235 Descending FlightAware ADS-B
Sun 02:53:04 PM 34.0100 -117.5930 278° West 327 376 10,500 -1,083 Descending FlightAware ADS-B
Sun 02:53:39 PM 34.0160 -117.6510 277° West 302 348 10,100 -643 Descending FlightAware ADS-B
Sun 02:54:00 PM 34.0200 -117.6880 277° West 286 329 9,900 -857 Descending FlightAware ADS-B
Sun 02:54:28 PM 34.0190 -117.7310 268° West 275 316 9,400 -1,091 Descending FlightAware ADS-B
Sun 02:54:44 PM 34.0160 -117.7550 261° West 274 315 9,100 -1,167 Descending FlightAware ADS-B
Sun 02:55:04 PM 34.0140 -117.7840 265° West 279 321 8,700 -1,200 Descending FlightAware ADS-B
Sun 02:55:24 PM 34.0100 -117.8160 261° West 284 327 8,300 -1,200 Descending FlightAware ADS-B
Sun 02:55:44 PM 34.0070 -117.8470 263° West 282 325 7,900 -1,333 Descending FlightAware ADS-B
Sun 02:56:00 PM 34.0050 -117.8710 264° West 280 322 7,500 -1,500 Descending FlightAware ADS-B
Sun 02:56:08 PM 34.0040 -117.8850 265° West 279 321 7,300 -1,273 Descending FlightAware ADS-B
Sun 02:56:33 PM 34.0000 -117.9230 263° West 275 316 6,800 -1,125 Descending FlightAware ADS-B
Sun 02:56:56 PM 33.9970 -117.9580 264° West 268 308 6,400 -977 Descending FlightAware ADS-B
Sun 02:57:16 PM 33.9940 -117.9870 263° West 263 303 6,100 -1,000 Descending FlightAware ADS-B
Sun 02:57:32 PM 33.9910 -118.0110 261° West 259 298 5,800 -900 Descending FlightAware ADS-B
Sun 02:57:56 PM 33.9880 -118.0440 264° West 253 291 5,500 -818 Descending FlightAware ADS-B
Sun 02:58:16 PM 33.9850 -118.0730 263° West 249 287 5,200 -1,000 Descending FlightAware ADS-B
Sun 02:58:38 PM 33.9820 -118.1040 263° West 243 280 4,800 -900 Descending FlightAware ADS-B
Sun 02:58:56 PM 33.9800 -118.1260 264° West 232 267 4,600 -1,000 Descending FlightAware ADS-B
Sun 02:59:20 PM 33.9770 -118.1570 263° West 226 260 4,100 -1,286 Descending FlightAware ADS-B
Sun 02:59:38 PM 33.9740 -118.1800 261° West 222 255 3,700 -1,235 Descending FlightAware ADS-B
Sun 02:59:54 PM 33.9730 -118.1980 266° West 216 249 3,400 -891 Descending FlightAware ADS-B
Sun 03:03:00 PM 33.9560 -118.3660 263° West 149 171 700 -861 Descending FlightAware ADS-B
Sun 03:03:30 PM 33.9530 -118.3890 261° West 146 168 300 -414 Descending FlightAware ADS-B
Sun 03:03:58 PM 33.9510 -118.4080 263° West 146 168 300  Level FlightAware ADS-B
Sun 03:11:00 PM 33.9425 -118.4081 270° West  Level Estimated
Sun 03:12:00 PM 33.9425 -118.4081 270° West  Level Estimated

Login

Don't have an account? Register now (free) for customized features, flight alerts, and more!